createdAt,value
2022-12-17T00:01:41.970Z,98294.66
2022-12-17T00:04:27.450Z,98296.09
2022-12-17T00:07:12.696Z,98300.03
2022-12-17T00:09:58.505Z,98301.94
2022-12-17T00:12:44.103Z,98297.50
2022-12-17T00:15:29.721Z,98310.09
2022-12-17T00:18:26.163Z,98326.19
2022-12-17T00:21:15.739Z,98332.16
2022-12-17T00:24:01.626Z,98331.81
2022-12-17T00:26:46.900Z,98340.47
2022-12-17T00:29:32.811Z,98347.31
2022-12-17T00:32:18.402Z,98327.28
2022-12-17T00:35:03.933Z,98344.41
2022-12-17T00:37:49.965Z,98339.97
2022-12-17T00:40:35.294Z,98338.63
2022-12-17T00:43:30.164Z,98337.44
2022-12-17T00:46:15.761Z,98344.16
2022-12-17T00:49:01.683Z,98343.34
2022-12-17T00:51:47.918Z,98358.81
2022-12-17T00:54:33.471Z,98355.66
2022-12-17T00:57:18.841Z,98355.66
2022-12-17T01:00:04.376Z,98358.69
2022-12-17T01:02:49.899Z,98353.78
2022-12-17T01:05:35.680Z,98347.78
2022-12-17T01:08:29.034Z,98360.00
2022-12-17T01:11:20.448Z,98336.59
2022-12-17T01:14:06.087Z,98352.81
2022-12-17T01:16:51.715Z,98358.59
2022-12-17T01:19:37.198Z,98350.53
2022-12-17T01:22:23.077Z,98369.88
2022-12-17T01:25:08.710Z,98367.22
2022-12-17T01:27:55.336Z,98377.09
2022-12-17T01:30:41.658Z,98375.59
2022-12-17T01:33:28.620Z,98379.06
2022-12-17T01:36:15.807Z,98372.94
2022-12-17T01:39:09.244Z,98383.28
2022-12-17T01:41:54.652Z,98391.41
2022-12-17T01:45:00.898Z,98383.50
2022-12-17T01:47:50.574Z,98375.91
2022-12-17T01:50:37.294Z,98378.91
2022-12-17T01:53:24.723Z,98382.72
2022-12-17T01:56:11.429Z,98383.50
2022-12-17T01:58:58.194Z,98386.66
2022-12-17T02:01:43.860Z,98394.06
2022-12-17T02:04:30.648Z,98382.66
2022-12-17T02:07:36.614Z,98378.91
2022-12-17T02:10:48.570Z,98383.22
2022-12-17T02:14:11.006Z,98382.88
2022-12-17T02:17:18.598Z,98368.84
2022-12-17T02:20:51.883Z,98364.59
2022-12-17T02:24:08.343Z,98341.19
2022-12-17T02:27:21.813Z,98337.63
2022-12-17T02:30:13.047Z,98349.13
2022-12-17T02:33:02.333Z,98334.97
2022-12-17T02:35:59.019Z,98334.38
2022-12-17T02:38:47.298Z,98322.56
2022-12-17T02:41:38.176Z,98314.66
2022-12-17T02:44:25.062Z,98319.72
2022-12-17T02:47:15.107Z,98314.22
2022-12-17T02:50:00.731Z,98326.78
2022-12-17T02:52:47.116Z,98352.22
2022-12-17T02:55:32.728Z,98386.00
2022-12-17T02:58:18.036Z,98403.06
2022-12-17T03:01:03.504Z,98415.31
2022-12-17T03:03:50.534Z,98431.03
2022-12-17T03:06:36.256Z,98436.41
2022-12-17T03:09:29.583Z,98455.84
2022-12-17T03:12:15.043Z,98460.88
2022-12-17T03:15:00.645Z,98482.13
2022-12-17T03:17:47.623Z,98478.19
2022-12-17T03:20:33.275Z,98494.41
2022-12-17T03:23:24.214Z,98478.41
2022-12-17T03:26:10.292Z,98495.44
2022-12-17T03:28:56.506Z,98500.25
2022-12-17T03:31:42.294Z,98508.72
2022-12-17T03:34:27.864Z,98502.75
2022-12-17T03:37:13.185Z,98489.56
2022-12-17T03:39:58.534Z,98491.25
2022-12-17T03:42:44.179Z,98489.69
2022-12-17T03:45:30.375Z,98495.63
2022-12-17T03:48:29.358Z,98484.25
2022-12-17T03:51:15.363Z,98474.00
2022-12-17T03:54:00.943Z,98469.47
2022-12-17T03:56:46.995Z,98467.34
2022-12-17T03:59:32.618Z,98468.50
2022-12-17T04:02:18.345Z,98464.06
2022-12-17T04:05:04.159Z,98454.38
2022-12-17T04:07:49.789Z,98452.47
2022-12-17T04:10:35.211Z,98439.28
2022-12-17T04:13:20.581Z,98421.03
2022-12-17T04:16:06.117Z,98435.16
2022-12-17T04:18:51.827Z,98444.06
2022-12-17T04:21:37.076Z,98441.94
2022-12-17T04:24:22.777Z,98443.53
2022-12-17T04:27:08.142Z,98440.91
2022-12-17T04:29:53.701Z,98438.47
2022-12-17T04:32:39.180Z,98439.44
2022-12-17T04:35:24.877Z,98453.97
2022-12-17T04:38:10.257Z,98470.75
2022-12-17T04:40:55.581Z,98472.31
2022-12-17T04:43:40.857Z,98470.63
2022-12-17T04:46:26.388Z,98473.78
2022-12-17T04:49:11.756Z,98483.41
2022-12-17T04:51:57.664Z,98480.00
2022-12-17T04:54:43.351Z,98501.44
2022-12-17T04:57:28.637Z,98505.25
2022-12-17T05:00:13.894Z,98501.13
2022-12-17T05:02:59.185Z,98515.69
2022-12-17T05:05:44.899Z,98516.66
2022-12-17T05:08:30.245Z,98523.63
2022-12-17T05:11:21.317Z,98516.44
2022-12-17T05:14:06.616Z,98522.66
2022-12-17T05:16:52.177Z,98521.22
2022-12-17T05:19:45.085Z,98531.63
2022-12-17T05:22:30.376Z,98526.03
2022-12-17T05:25:15.892Z,98520.88
2022-12-17T05:28:01.302Z,98522.22
2022-12-17T05:30:47.173Z,98527.81
2022-12-17T05:33:32.932Z,98544.72
2022-12-17T05:36:22.026Z,98522.78
2022-12-17T05:39:08.294Z,98536.91
2022-12-17T05:41:54.285Z,98550.00
2022-12-17T05:44:39.600Z,98544.72
2022-12-17T05:47:25.256Z,98537.56
2022-12-17T05:50:10.542Z,98548.53
2022-12-17T05:52:56.142Z,98558.66
2022-12-17T05:55:42.048Z,98564.97
2022-12-17T05:58:30.156Z,98569.63
2022-12-17T06:01:21.779Z,98562.56
2022-12-17T06:04:07.429Z,98571.94
2022-12-17T06:06:53.264Z,98569.53
2022-12-17T06:09:39.263Z,98551.47
2022-12-17T06:12:24.915Z,98555.47
2022-12-17T06:15:10.222Z,98562.84
2022-12-17T06:17:56.070Z,98586.94
2022-12-17T06:20:41.876Z,98605.47
2022-12-17T06:23:30.303Z,98616.47
2022-12-17T06:26:16.265Z,98609.72
2022-12-17T06:29:02.464Z,98607.19
2022-12-17T06:31:47.957Z,98615.84
2022-12-17T06:34:33.584Z,98613.06
2022-12-17T06:37:18.866Z,98637.56
2022-12-17T06:40:04.415Z,98642.00
2022-12-17T06:42:49.907Z,98658.16
2022-12-17T06:45:35.285Z,98671.56
2022-12-17T06:48:25.450Z,98659.53
2022-12-17T06:51:14.199Z,98645.91
2022-12-17T06:54:00.501Z,98648.31
2022-12-17T06:56:46.774Z,98640.31
2022-12-17T06:59:32.405Z,98665.00
2022-12-17T07:02:18.073Z,98668.25
2022-12-17T07:05:03.657Z,98667.84
2022-12-17T07:07:49.376Z,98675.66
2022-12-17T07:10:34.888Z,98690.81
2022-12-17T07:13:27.357Z,98696.22
2022-12-17T07:16:13.504Z,98711.75
2022-12-17T07:18:59.267Z,98707.41
2022-12-17T07:21:44.545Z,98718.34
2022-12-17T07:24:30.341Z,98711.41
2022-12-17T07:27:15.584Z,98698.22
2022-12-17T07:30:01.272Z,98728.72
2022-12-17T07:32:46.529Z,98730.59
2022-12-17T07:35:32.066Z,98733.47
2022-12-17T07:38:23.231Z,98735.88
2022-12-17T07:41:09.234Z,98741.75
2022-12-17T07:43:54.485Z,98751.38
2022-12-17T07:46:40.213Z,98753.78
2022-12-17T07:49:26.496Z,98754.63
2022-12-17T07:52:30.382Z,98756.25
2022-12-17T07:55:18.306Z,98759.50
2022-12-17T07:58:03.830Z,98763.63
2022-12-17T08:00:49.523Z,98761.16
2022-12-17T08:03:35.575Z,98773.78
2022-12-17T08:06:21.339Z,98777.78
2022-12-17T08:09:07.020Z,98779.28
2022-12-17T08:11:52.337Z,98796.59
2022-12-17T08:14:37.942Z,98798.28
2022-12-17T08:17:23.383Z,98799.78
2022-12-17T08:20:08.694Z,98810.31
2022-12-17T08:22:54.402Z,98824.06
2022-12-17T08:25:39.930Z,98808.22
2022-12-17T08:28:49.517Z,98803.50
2022-12-17T08:31:32.146Z,98817.97
2022-12-17T08:34:17.654Z,98829.28
2022-12-17T08:37:03.265Z,98824.94
2022-12-17T08:39:48.612Z,98821.38
2022-12-17T08:42:33.806Z,98819.59
2022-12-17T08:45:19.240Z,98831.97
2022-12-17T08:48:04.603Z,98832.81
2022-12-17T08:50:50.021Z,98831.25
2022-12-17T08:53:35.645Z,98833.97
2022-12-17T08:56:20.843Z,98831.34
2022-12-17T08:59:06.516Z,98833.50
2022-12-17T09:01:52.300Z,98830.75
2022-12-17T09:04:37.928Z,98823.72
2022-12-17T09:07:23.657Z,98835.19
2022-12-17T09:10:09.130Z,98852.22
2022-12-17T09:12:56.660Z,98843.47
2022-12-17T09:15:45.540Z,98838.16
2022-12-17T09:18:30.904Z,98826.75
2022-12-17T09:21:16.566Z,98818.03
2022-12-17T09:24:02.115Z,98813.88
2022-12-17T09:26:47.515Z,98834.16
2022-12-17T09:29:34.255Z,98833.19
2022-12-17T09:32:20.099Z,98839.44
2022-12-17T09:35:05.588Z,98835.84
2022-12-17T09:37:52.150Z,98850.84
2022-12-17T09:40:41.857Z,98825.91
2022-12-17T09:43:42.401Z,98824.53
2022-12-17T09:46:47.217Z,98820.75
2022-12-17T09:49:38.618Z,98830.75
2022-12-17T09:52:47.712Z,98826.94
2022-12-17T09:55:41.747Z,98844.50
2022-12-17T09:58:41.746Z,98844.59
2022-12-17T10:01:39.248Z,98851.06
2022-12-17T10:04:33.531Z,98858.78
2022-12-17T10:07:20.671Z,98868.63
2022-12-17T10:10:23.516Z,98863.31
2022-12-17T10:13:13.550Z,98869.88
2022-12-17T10:16:01.816Z,98878.75
2022-12-17T10:18:48.965Z,98882.03
2022-12-17T10:21:38.010Z,98877.28
2022-12-17T10:24:28.320Z,98866.72
2022-12-17T10:27:14.259Z,98866.91
2022-12-17T10:30:01.889Z,98882.75
2022-12-17T10:32:48.446Z,98883.41
2022-12-17T10:35:39.191Z,98880.97
2022-12-17T10:38:44.885Z,98885.94
2022-12-17T10:42:00.817Z,98886.66
2022-12-17T10:44:56.897Z,98886.03
2022-12-17T10:47:44.798Z,98879.50
2022-12-17T10:50:39.655Z,98879.91
2022-12-17T10:53:41.954Z,98887.66
2022-12-17T10:56:43.157Z,98898.41
2022-12-17T10:59:44.191Z,98896.59
2022-12-17T11:02:39.270Z,98893.13
2022-12-17T11:05:33.134Z,98893.56
2022-12-17T11:08:20.241Z,98913.53
2022-12-17T11:11:07.075Z,98913.22
2022-12-17T11:14:01.592Z,98917.13
2022-12-17T11:17:03.124Z,98925.41
2022-12-17T11:20:13.852Z,98926.41
2022-12-17T11:23:12.668Z,98927.38
2022-12-17T11:26:02.069Z,98935.28
2022-12-17T11:28:49.070Z,98929.47
2022-12-17T11:31:37.261Z,98924.09
2022-12-17T11:34:34.023Z,98930.94
2022-12-17T11:37:39.779Z,98930.41
2022-12-17T11:40:35.853Z,98931.03
2022-12-17T11:43:40.059Z,98946.78
2022-12-17T11:46:41.788Z,98944.66
2022-12-17T11:49:53.586Z,98951.53
2022-12-17T11:52:59.879Z,98964.63
2022-12-17T11:56:05.615Z,98951.44
2022-12-17T11:58:56.707Z,98963.00
2022-12-17T12:01:58.734Z,98964.38
2022-12-17T12:05:15.786Z,98963.72
2022-12-17T12:08:09.708Z,98968.78
2022-12-17T12:11:06.201Z,98973.66
2022-12-17T12:14:05.981Z,98979.72
2022-12-17T12:17:00.718Z,98998.03
2022-12-17T12:20:00.484Z,98986.19
2022-12-17T12:22:51.636Z,98992.44
2022-12-17T12:25:43.099Z,98996.13
2022-12-17T12:28:47.426Z,99004.25
2022-12-17T12:31:57.001Z,99008.06
2022-12-17T12:34:48.648Z,99008.72
2022-12-17T12:37:37.330Z,99014.25
2022-12-17T12:40:41.350Z,99012.13
2022-12-17T12:43:47.554Z,99017.69
2022-12-17T12:47:00.342Z,99012.91
2022-12-17T12:50:03.421Z,99017.88
2022-12-17T12:52:50.288Z,99019.22
2022-12-17T12:55:35.936Z,99018.06
2022-12-17T12:58:24.204Z,99024.53
2022-12-17T13:01:09.447Z,99030.50
2022-12-17T13:04:03.849Z,99031.28
2022-12-17T13:06:52.774Z,99034.47
2022-12-17T13:09:23.667Z,99042.94
2022-12-17T13:11:57.348Z,99046.25
2022-12-17T13:14:31.688Z,99048.44
2022-12-17T13:17:07.547Z,99049.03
2022-12-17T13:19:40.503Z,99060.16
2022-12-17T13:22:31.803Z,99055.53
2022-12-17T13:25:31.193Z,99064.66
2022-12-17T13:27:58.198Z,99065.03
2022-12-17T13:30:35.680Z,99073.13
2022-12-17T13:33:05.350Z,99075.41
2022-12-17T13:35:49.896Z,99078.81
2022-12-17T13:38:27.348Z,99077.75
2022-12-17T13:40:57.053Z,99077.31
2022-12-17T13:43:31.141Z,99080.84
2022-12-17T13:45:58.060Z,99078.75
2022-12-17T13:48:28.230Z,99088.13
2022-12-17T13:51:00.119Z,99094.66
2022-12-17T13:53:28.817Z,99095.38
2022-12-17T13:55:58.267Z,99093.81
2022-12-17T13:58:31.514Z,99106.50
2022-12-17T14:01:26.542Z,99107.09
2022-12-17T14:04:06.159Z,99109.34
2022-12-17T14:06:37.367Z,99104.34
2022-12-17T14:09:04.899Z,99119.38
2022-12-17T14:11:52.062Z,99125.16
2022-12-17T14:14:32.943Z,99132.47
2022-12-17T14:17:00.707Z,99137.41
2022-12-17T14:19:29.740Z,99137.69
2022-12-17T14:21:57.459Z,99138.22
2022-12-17T14:24:29.511Z,99141.44
2022-12-17T14:27:00.470Z,99149.34
2022-12-17T14:29:32.747Z,99154.00
2022-12-17T14:32:02.952Z,99148.41
2022-12-17T14:34:41.363Z,99161.19
2022-12-17T14:37:18.632Z,99168.59
2022-12-17T14:39:48.187Z,99173.13
2022-12-17T14:42:32.661Z,99180.31
2022-12-17T14:45:01.112Z,99179.81
2022-12-17T14:47:37.060Z,99186.22
2022-12-17T14:50:12.870Z,99197.81
2022-12-17T14:52:44.055Z,99195.09
2022-12-17T14:55:28.315Z,99205.09
2022-12-17T14:58:18.711Z,99210.00
2022-12-17T15:00:47.893Z,99216.31
2022-12-17T15:03:17.901Z,99214.81
2022-12-17T15:05:49.207Z,99225.53
2022-12-17T15:08:16.229Z,99229.16
2022-12-17T15:10:43.194Z,99234.50
2022-12-17T15:13:10.105Z,99218.00
2022-12-17T15:15:37.052Z,99236.28
2022-12-17T15:18:04.049Z,99238.47
2022-12-17T15:20:31.431Z,99240.75
2022-12-17T15:22:58.320Z,99236.78
2022-12-17T15:25:25.222Z,99246.66
2022-12-17T15:27:52.208Z,99251.94
2022-12-17T15:30:19.383Z,99240.25
2022-12-17T15:32:46.716Z,99257.22
2022-12-17T15:35:14.645Z,99258.34
2022-12-17T15:37:41.516Z,99264.31
2022-12-17T15:40:12.207Z,99271.66
2022-12-17T15:43:02.944Z,99267.50
2022-12-17T15:45:32.917Z,99276.25
2022-12-17T15:47:59.926Z,99282.22
2022-12-17T15:50:27.381Z,99286.94
2022-12-17T15:52:54.300Z,99287.41
2022-12-17T15:55:21.558Z,99284.69
2022-12-17T15:57:48.446Z,99285.81
2022-12-17T16:00:15.704Z,99294.16
2022-12-17T16:02:42.839Z,99298.63
2022-12-17T16:05:10.442Z,99298.78
2022-12-17T16:07:38.271Z,99296.53
2022-12-17T16:10:06.815Z,99306.03
2022-12-17T16:12:33.969Z,99302.69
2022-12-17T16:15:00.906Z,99313.69
2022-12-17T16:17:27.893Z,99311.81
2022-12-17T16:19:54.870Z,99322.00
2022-12-17T16:22:22.265Z,99328.66
2022-12-17T16:24:49.242Z,99324.66
2022-12-17T16:27:18.382Z,99324.66
2022-12-17T16:29:47.097Z,99325.22
2022-12-17T16:32:15.258Z,99310.81
2022-12-17T16:34:42.191Z,99337.69
2022-12-17T16:37:09.323Z,99330.38
2022-12-17T16:39:36.287Z,99343.25
2022-12-17T16:42:03.389Z,99344.16
2022-12-17T16:44:30.280Z,99348.06
2022-12-17T16:46:57.272Z,99352.81
2022-12-17T16:49:26.828Z,99353.13
2022-12-17T16:51:55.506Z,99355.34
2022-12-17T16:54:27.436Z,99362.78
2022-12-17T16:56:55.977Z,99364.78
2022-12-17T16:59:23.735Z,99367.03
2022-12-17T17:01:52.536Z,99373.44
2022-12-17T17:04:23.047Z,99385.00
2022-12-17T17:06:54.475Z,99382.44
2022-12-17T17:09:22.723Z,99377.78
2022-12-17T17:11:52.000Z,99393.00
2022-12-17T17:14:20.222Z,99399.31
2022-12-17T17:16:49.154Z,99398.94
2022-12-17T17:19:16.292Z,99403.03
2022-12-17T17:21:50.033Z,99406.00
2022-12-17T17:24:21.237Z,99408.06
2022-12-17T17:26:49.909Z,99419.47
2022-12-17T17:29:17.260Z,99424.81
2022-12-17T17:34:31.134Z,99438.41
2022-12-17T17:36:58.050Z,99447.94
2022-12-17T17:39:25.098Z,99443.16
2022-12-17T17:41:52.248Z,99431.06
2022-12-17T17:44:19.191Z,99444.00
2022-12-17T17:46:46.246Z,99444.50
2022-12-17T17:49:13.226Z,99455.53
2022-12-17T17:54:29.266Z,99463.38
2022-12-17T17:56:56.356Z,99454.34
2022-12-17T17:59:29.389Z,99450.06
2022-12-17T18:01:58.274Z,99459.97
2022-12-17T18:04:25.312Z,99474.69
2022-12-17T18:07:23.799Z,99475.00
2022-12-17T18:09:39.898Z,99473.31
2022-12-17T18:12:27.003Z,99476.72
2022-12-17T18:17:41.003Z,99490.97
2022-12-17T18:20:09.898Z,99498.41
2022-12-17T18:22:37.401Z,99502.56
2022-12-17T18:25:05.497Z,99501.09
2022-12-17T18:27:33.308Z,99510.66
2022-12-17T18:30:00.273Z,99515.00
2022-12-17T18:32:27.300Z,99516.69
2022-12-17T18:34:55.632Z,99525.38
2022-12-17T18:37:22.790Z,99530.34
2022-12-17T18:39:49.960Z,99537.63
2022-12-17T18:42:35.622Z,99541.94
2022-12-17T18:45:02.804Z,99549.94
2022-12-17T18:47:30.033Z,99545.66
2022-12-17T18:49:57.367Z,99549.94
2022-12-17T18:52:25.178Z,99538.00
2022-12-17T18:54:52.167Z,99534.50
2022-12-17T18:57:20.359Z,99522.50
2022-12-17T18:59:47.303Z,99527.69
2022-12-17T19:02:15.735Z,99541.22
2022-12-17T19:04:43.215Z,99546.34
2022-12-17T19:07:10.976Z,99544.56
2022-12-17T19:09:39.724Z,99552.47
2022-12-17T19:12:09.443Z,99553.25
2022-12-17T19:14:36.998Z,99561.31
2022-12-17T19:17:04.335Z,99562.31
2022-12-17T19:19:31.324Z,99558.97
2022-12-17T19:22:01.361Z,99567.56
2022-12-17T19:24:28.523Z,99569.28
2022-12-17T19:26:55.822Z,99562.88
2022-12-17T19:29:24.511Z,99581.22
2022-12-17T19:31:51.811Z,99576.44
2022-12-17T19:34:19.753Z,99590.16
2022-12-17T19:36:47.748Z,99589.06
2022-12-17T19:39:17.613Z,99596.81
2022-12-17T19:41:46.164Z,99598.97
2022-12-17T19:44:16.783Z,99597.59
2022-12-17T19:46:44.322Z,99594.84
2022-12-17T19:49:12.788Z,99597.44
2022-12-17T19:51:44.484Z,99606.03
2022-12-17T19:54:15.224Z,99609.97
2022-12-17T19:56:44.997Z,99608.38
2022-12-17T19:59:13.128Z,99617.28
2022-12-17T20:01:45.748Z,99625.03
2022-12-17T20:04:15.093Z,99618.22
2022-12-17T20:06:43.564Z,99625.31
2022-12-17T20:09:10.820Z,99626.88
2022-12-17T20:11:37.916Z,99637.41
2022-12-17T20:14:09.174Z,99637.41
2022-12-17T20:16:42.590Z,99635.63
2022-12-17T20:19:16.968Z,99639.28
2022-12-17T20:21:43.958Z,99644.25
2022-12-17T20:24:12.388Z,99655.34
2022-12-17T20:26:40.690Z,99644.09
2022-12-17T20:29:08.200Z,99651.84
2022-12-17T20:31:35.785Z,99656.19
2022-12-17T20:34:04.799Z,99655.72
2022-12-17T20:36:32.270Z,99650.88
2022-12-17T20:38:59.393Z,99657.75
2022-12-17T20:41:28.732Z,99669.38
2022-12-17T20:43:56.572Z,99667.81
2022-12-17T20:46:25.523Z,99668.91
2022-12-17T20:48:53.723Z,99674.81
2022-12-17T20:51:23.628Z,99671.31
2022-12-17T20:53:51.193Z,99684.34
2022-12-17T20:56:21.453Z,99688.75
2022-12-17T20:58:53.133Z,99689.84
2022-12-17T21:01:22.567Z,99688.91
2022-12-17T21:03:51.409Z,99700.16
2022-12-17T21:06:22.535Z,99678.72
2022-12-17T21:08:52.825Z,99683.53
2022-12-17T21:11:24.508Z,99705.03
2022-12-17T21:13:52.601Z,99675.06
2022-12-17T21:16:23.640Z,99725.19
2022-12-17T21:18:54.858Z,99719.16
2022-12-17T21:21:28.068Z,99725.41
2022-12-17T21:23:56.077Z,99733.16
2022-12-17T21:26:26.229Z,99735.91
2022-12-17T21:28:57.417Z,99731.31
2022-12-17T21:31:33.800Z,99739.00
2022-12-17T21:34:03.358Z,99739.94
2022-12-17T21:36:32.996Z,99743.00
2022-12-17T21:39:00.947Z,99747.38
2022-12-17T21:41:32.526Z,99754.13
2022-12-17T21:44:02.494Z,99761.63
2022-12-17T21:46:30.444Z,99758.34
2022-12-17T21:49:00.392Z,99756.50
2022-12-17T21:51:29.112Z,99758.19
2022-12-17T21:53:59.180Z,99766.63
2022-12-17T21:56:26.795Z,99774.59
2022-12-17T21:59:01.252Z,99772.88
2022-12-17T22:01:32.090Z,99778.84
2022-12-17T22:04:02.870Z,99775.44
2022-12-17T22:06:40.787Z,99766.25
2022-12-17T22:09:27.893Z,99780.94
2022-12-17T22:12:20.266Z,99783.13
2022-12-17T22:14:47.687Z,99780.56
2022-12-17T22:17:16.352Z,99785.06
2022-12-17T22:19:43.351Z,99778.84
2022-12-17T22:22:10.320Z,99785.44
2022-12-17T22:24:37.268Z,99778.56
2022-12-17T22:27:08.801Z,99780.00
2022-12-17T22:29:55.760Z,99788.75
2022-12-17T22:32:41.170Z,99796.22
2022-12-17T22:38:04.261Z,99787.00
2022-12-17T22:40:06.207Z,99799.47
2022-12-17T22:44:33.955Z,99791.31
2022-12-17T22:44:38.994Z,99801.81
2022-12-17T22:46:17.151Z,99793.19
2022-12-17T22:48:44.295Z,99802.72
2022-12-17T22:51:14.126Z,99808.47
2022-12-17T22:53:50.679Z,99814.75
2022-12-17T22:56:22.520Z,99828.16
2022-12-17T22:59:06.347Z,99817.13
2022-12-17T23:01:35.285Z,99818.59
2022-12-17T23:04:03.806Z,99830.34
2022-12-17T23:06:30.834Z,99840.59
2022-12-17T23:08:59.249Z,99835.97
2022-12-17T23:11:29.222Z,99825.31
2022-12-17T23:13:56.645Z,99846.81
2022-12-17T23:16:24.159Z,99845.69
2022-12-17T23:18:52.077Z,99846.44
2022-12-17T23:21:24.069Z,99844.03
2022-12-17T23:23:52.405Z,99838.53
2022-12-17T23:26:37.918Z,99847.69
2022-12-17T23:29:08.336Z,99859.56
2022-12-17T23:31:38.521Z,99861.50
2022-12-17T23:34:05.734Z,99862.63
2022-12-17T23:36:33.173Z,99865.91
2022-12-17T23:39:00.491Z,99875.03
2022-12-17T23:41:30.444Z,99866.31
2022-12-17T23:43:58.488Z,99881.94
2022-12-17T23:46:27.638Z,99877.44
2022-12-17T23:48:55.240Z,99877.38
2022-12-17T23:51:24.176Z,99880.22
2022-12-17T23:53:51.134Z,99885.34
2022-12-17T23:56:24.083Z,99890.34
2022-12-17T23:58:56.761Z,99864.84
